Terminal Aerodrome Forecast
Issued by NWS Jackson, MS

Home | Current Version | Previous Version | Text Only | Print | Product List | Glossary On
Versions: 1 2 3 4 5 6 7 8 9 10 11 12 13
773
FTUS44 KJAN 312335
TAFGLH
TAF
KGLH 312335Z 0100/0124 01007KT P6SM FEW250
     FM011130 02007KT 3SM BR FEW250
     FM011300 02008KT P6SM FEW250
     FM011700 01010G21KT P6SM SCT060 SCT250=

USA.gov is the U.S. government's official web portal to all federal, state and local government web resources and services.